sensor_id;sensor_type;location;lat;lon;timestamp;temperature;humidity
10276;DHT22;5183;51.190;6.820;2022-07-29T00:00:11;19.80;1.00
10276;DHT22;5183;51.190;6.820;2022-07-29T00:02:37;19.80;1.00
10276;DHT22;5183;51.190;6.820;2022-07-29T00:05:08;19.80;1.00
10276;DHT22;5183;51.190;6.820;2022-07-29T00:07:35;19.80;1.00
10276;DHT22;5183;51.190;6.820;2022-07-29T00:10:02;19.80;1.00
10276;DHT22;5183;51.190;6.820;2022-07-29T00:12:28;19.80;1.00
10276;DHT22;5183;51.190;6.820;2022-07-29T00:14:56;19.80;1.00
10276;DHT22;5183;51.190;6.820;2022-07-29T00:17:24;19.80;1.00
10276;DHT22;5183;51.190;6.820;2022-07-29T00:19:51;19.80;1.00
10276;DHT22;5183;51.190;6.820;2022-07-29T00:22:20;19.80;1.00
10276;DHT22;5183;51.190;6.820;2022-07-29T00:24:48;19.70;1.00
10276;DHT22;5183;51.190;6.820;2022-07-29T00:27:15;19.70;1.00
10276;DHT22;5183;51.190;6.820;2022-07-29T00:29:42;19.70;1.00
10276;DHT22;5183;51.190;6.820;2022-07-29T00:32:09;19.70;1.00
10276;DHT22;5183;51.190;6.820;2022-07-29T00:34:36;19.60;1.00
10276;DHT22;5183;51.190;6.820;2022-07-29T00:37:22;19.60;1.00
10276;DHT22;5183;51.190;6.820;2022-07-29T00:39:49;19.60;1.00
10276;DHT22;5183;51.190;6.820;2022-07-29T00:42:16;19.50;1.00
10276;DHT22;5183;51.190;6.820;2022-07-29T00:44:43;19.60;1.00
10276;DHT22;5183;51.190;6.820;2022-07-29T00:47:11;19.50;1.00
10276;DHT22;5183;51.190;6.820;2022-07-29T00:49:38;19.50;1.00
10276;DHT22;5183;51.190;6.820;2022-07-29T00:52:07;19.50;1.00
10276;DHT22;5183;51.190;6.820;2022-07-29T00:54:36;19.50;1.00
10276;DHT22;5183;51.190;6.820;2022-07-29T00:57:06;19.50;1.00
10276;DHT22;5183;51.190;6.820;2022-07-29T00:59:33;19.50;1.00
10276;DHT22;5183;51.190;6.820;2022-07-29T01:02:00;19.40;1.00
10276;DHT22;5183;51.190;6.820;2022-07-29T01:04:27;19.40;1.00
10276;DHT22;5183;51.190;6.820;2022-07-29T01:06:55;19.40;1.00
10276;DHT22;5183;51.190;6.820;2022-07-29T01:09:22;19.30;1.00
10276;DHT22;5183;51.190;6.820;2022-07-29T01:11:51;19.30;1.00
10276;DHT22;5183;51.190;6.820;2022-07-29T01:14:19;19.30;1.00
10276;DHT22;5183;51.190;6.820;2022-07-29T01:16:51;19.30;1.00
10276;DHT22;5183;51.190;6.820;2022-07-29T01:19:41;19.30;1.00
10276;DHT22;5183;51.190;6.820;2022-07-29T01:22:24;19.30;1.00
10276;DHT22;5183;51.190;6.820;2022-07-29T01:25:05;19.30;1.00
10276;DHT22;5183;51.190;6.820;2022-07-29T01:27:51;19.20;1.00
10276;DHT22;5183;51.190;6.820;2022-07-29T01:30:24;19.20;1.00
10276;DHT22;5183;51.190;6.820;2022-07-29T01:32:55;19.20;1.00
10276;DHT22;5183;51.190;6.820;2022-07-29T01:35:25;19.10;1.00
10276;DHT22;5183;51.190;6.820;2022-07-29T01:37:57;19.10;1.00
10276;DHT22;5183;51.190;6.820;2022-07-29T01:40:29;19.10;1.00
10276;DHT22;5183;51.190;6.820;2022-07-29T01:42:58;19.00;1.00
10276;DHT22;5183;51.190;6.820;2022-07-29T01:45:32;19.10;1.00
10276;DHT22;5183;51.190;6.820;2022-07-29T01:48:03;19.00;1.00
10276;DHT22;5183;51.190;6.820;2022-07-29T01:50:34;19.10;1.00
10276;DHT22;5183;51.190;6.820;2022-07-29T01:53:04;19.00;1.00
10276;DHT22;5183;51.190;6.820;2022-07-29T01:55:36;19.10;1.00
10276;DHT22;5183;51.190;6.820;2022-07-29T01:58:05;19.10;1.00
10276;DHT22;5183;51.190;6.820;2022-07-29T02:00:34;19.00;1.00
10276;DHT22;5183;51.190;6.820;2022-07-29T02:03:05;19.10;1.00
10276;DHT22;5183;51.190;6.820;2022-07-29T02:05:34;19.20;1.00
10276;DHT22;5183;51.190;6.820;2022-07-29T02:08:03;19.20;1.00
10276;DHT22;5183;51.190;6.820;2022-07-29T02:10:33;19.20;1.00
10276;DHT22;5183;51.190;6.820;2022-07-29T02:13:02;19.10;1.00
10276;DHT22;5183;51.190;6.820;2022-07-29T02:15:32;19.10;1.00
10276;DHT22;5183;51.190;6.820;2022-07-29T02:18:02;19.10;1.00
10276;DHT22;5183;51.190;6.820;2022-07-29T02:20:31;19.10;1.00
10276;DHT22;5183;51.190;6.820;2022-07-29T02:23:00;19.00;1.00
10276;DHT22;5183;51.190;6.820;2022-07-29T02:25:29;19.10;1.00
10276;DHT22;5183;51.190;6.820;2022-07-29T02:27:57;19.10;1.00
10276;DHT22;5183;51.190;6.820;2022-07-29T02:30:27;19.10;1.00
10276;DHT22;5183;51.190;6.820;2022-07-29T02:32:54;19.10;1.00
10276;DHT22;5183;51.190;6.820;2022-07-29T02:35:23;19.20;1.00
10276;DHT22;5183;51.190;6.820;2022-07-29T02:37:52;19.20;1.00
10276;DHT22;5183;51.190;6.820;2022-07-29T02:40:34;19.20;1.00
10276;DHT22;5183;51.190;6.820;2022-07-29T02:43:02;19.20;1.00
10276;DHT22;5183;51.190;6.820;2022-07-29T02:45:29;19.20;1.00
10276;DHT22;5183;51.190;6.820;2022-07-29T02:47:59;19.30;1.00
10276;DHT22;5183;51.190;6.820;2022-07-29T02:50:31;19.20;1.00
10276;DHT22;5183;51.190;6.820;2022-07-29T02:53:02;19.10;1.00
10276;DHT22;5183;51.190;6.820;2022-07-29T02:55:34;19.20;1.00
10276;DHT22;5183;51.190;6.820;2022-07-29T02:58:05;19.00;1.00
10276;DHT22;5183;51.190;6.820;2022-07-29T03:00:37;18.90;1.00
10276;DHT22;5183;51.190;6.820;2022-07-29T03:03:11;18.90;1.00
10276;DHT22;5183;51.190;6.820;2022-07-29T03:05:40;18.80;1.00
10276;DHT22;5183;51.190;6.820;2022-07-29T03:08:09;18.80;1.00
10276;DHT22;5183;51.190;6.820;2022-07-29T03:10:37;18.80;1.00
10276;DHT22;5183;51.190;6.820;2022-07-29T03:13:06;18.90;1.00
10276;DHT22;5183;51.190;6.820;2022-07-29T03:15:34;18.90;1.00
10276;DHT22;5183;51.190;6.820;2022-07-29T03:18:02;19.00;1.00
10276;DHT22;5183;51.190;6.820;2022-07-29T03:20:29;18.70;99.90
10276;DHT22;5183;51.190;6.820;2022-07-29T03:22:57;18.40;1.00
10276;DHT22;5183;51.190;6.820;2022-07-29T03:25:24;18.10;1.00
10276;DHT22;5183;51.190;6.820;2022-07-29T03:27:52;17.90;99.90
10276;DHT22;5183;51.190;6.820;2022-07-29T03:30:19;17.80;99.90
10276;DHT22;5183;51.190;6.820;2022-07-29T03:32:46;17.80;1.00
10276;DHT22;5183;51.190;6.820;2022-07-29T03:35:13;17.50;99.90
10276;DHT22;5183;51.190;6.820;2022-07-29T03:37:41;16.80;48.10
10276;DHT22;5183;51.190;6.820;2022-07-29T03:40:13;16.20;93.90
10276;DHT22;5183;51.190;6.820;2022-07-29T03:42:41;15.90;99.90
10276;DHT22;5183;51.190;6.820;2022-07-29T03:45:12;15.60;99.90
10276;DHT22;5183;51.190;6.820;2022-07-29T03:47:44;15.50;99.90
10276;DHT22;5183;51.190;6.820;2022-07-29T03:50:14;15.40;99.90
10276;DHT22;5183;51.190;6.820;2022-07-29T03:52:41;15.20;99.90
10276;DHT22;5183;51.190;6.820;2022-07-29T03:55:10;15.20;99.90
10276;DHT22;5183;51.190;6.820;2022-07-29T03:57:38;15.30;99.90
10276;DHT22;5183;51.190;6.820;2022-07-29T04:00:07;15.20;99.90
10276;DHT22;5183;51.190;6.820;2022-07-29T04:02:35;15.20;99.90
10276;DHT22;5183;51.190;6.820;2022-07-29T04:05:02;15.20;99.90
10276;DHT22;5183;51.190;6.820;2022-07-29T04:07:29;15.20;99.90
10276;DHT22;5183;51.190;6.820;2022-07-29T04:09:56;15.30;99.90
10276;DHT22;5183;51.190;6.820;2022-07-29T04:12:24;15.40;99.90
10276;DHT22;5183;51.190;6.820;2022-07-29T04:14:51;15.40;99.90
10276;DHT22;5183;51.190;6.820;2022-07-29T04:17:18;15.40;99.90
10276;DHT22;5183;51.190;6.820;2022-07-29T04:19:45;15.30;99.90
10276;DHT22;5183;51.190;6.820;2022-07-29T04:22:12;15.30;99.90
10276;DHT22;5183;51.190;6.820;2022-07-29T04:24:39;15.30;99.90
10276;DHT22;5183;51.190;6.820;2022-07-29T04:27:05;15.30;99.90
10276;DHT22;5183;51.190;6.820;2022-07-29T04:29:34;15.30;99.90
10276;DHT22;5183;51.190;6.820;2022-07-29T04:32:01;15.20;99.90
10276;DHT22;5183;51.190;6.820;2022-07-29T04:34:27;15.20;99.90
10276;DHT22;5183;51.190;6.820;2022-07-29T04:36:54;15.30;99.90
10276;DHT22;5183;51.190;6.820;2022-07-29T04:39:21;15.30;99.90
10276;DHT22;5183;51.190;6.820;2022-07-29T04:41:48;15.20;99.90
10276;DHT22;5183;51.190;6.820;2022-07-29T04:44:15;15.10;99.90
10276;DHT22;5183;51.190;6.820;2022-07-29T04:46:44;14.90;99.90
10276;DHT22;5183;51.190;6.820;2022-07-29T04:49:11;14.80;99.90
10276;DHT22;5183;51.190;6.820;2022-07-29T04:51:38;14.70;99.90
10276;DHT22;5183;51.190;6.820;2022-07-29T04:54:05;14.60;99.90
10276;DHT22;5183;51.190;6.820;2022-07-29T04:56:33;14.60;99.90
10276;DHT22;5183;51.190;6.820;2022-07-29T04:58:59;14.60;99.90
10276;DHT22;5183;51.190;6.820;2022-07-29T05:01:26;14.50;99.90
10276;DHT22;5183;51.190;6.820;2022-07-29T05:03:54;14.50;99.90
10276;DHT22;5183;51.190;6.820;2022-07-29T05:06:21;14.50;99.90
10276;DHT22;5183;51.190;6.820;2022-07-29T05:08:48;14.50;99.90
10276;DHT22;5183;51.190;6.820;2022-07-29T05:11:15;14.50;99.90
10276;DHT22;5183;51.190;6.820;2022-07-29T05:13:42;14.50;99.90
10276;DHT22;5183;51.190;6.820;2022-07-29T05:16:09;14.60;99.90
10276;DHT22;5183;51.190;6.820;2022-07-29T05:18:36;14.70;99.90
10276;DHT22;5183;51.190;6.820;2022-07-29T05:21:04;14.70;99.90
10276;DHT22;5183;51.190;6.820;2022-07-29T05:23:31;14.80;99.90
10276;DHT22;5183;51.190;6.820;2022-07-29T05:25:58;14.80;99.90
10276;DHT22;5183;51.190;6.820;2022-07-29T05:28:25;14.80;99.90
10276;DHT22;5183;51.190;6.820;2022-07-29T05:30:51;14.90;99.90
10276;DHT22;5183;51.190;6.820;2022-07-29T05:33:18;14.90;99.90
10276;DHT22;5183;51.190;6.820;2022-07-29T05:35:45;15.00;99.90
10276;DHT22;5183;51.190;6.820;2022-07-29T05:38:14;15.00;99.90
10276;DHT22;5183;51.190;6.820;2022-07-29T05:40:41;15.00;99.90
10276;DHT22;5183;51.190;6.820;2022-07-29T05:43:08;15.10;99.90
10276;DHT22;5183;51.190;6.820;2022-07-29T05:45:35;15.20;99.90
10276;DHT22;5183;51.190;6.820;2022-07-29T05:48:02;15.30;99.90
10276;DHT22;5183;51.190;6.820;2022-07-29T05:50:29;15.40;99.90
10276;DHT22;5183;51.190;6.820;2022-07-29T05:52:56;15.50;99.90
10276;DHT22;5183;51.190;6.820;2022-07-29T05:55:24;15.60;99.90
10276;DHT22;5183;51.190;6.820;2022-07-29T05:57:52;15.60;99.90
10276;DHT22;5183;51.190;6.820;2022-07-29T06:00:19;15.70;99.90
10276;DHT22;5183;51.190;6.820;2022-07-29T06:02:45;15.80;99.90
10276;DHT22;5183;51.190;6.820;2022-07-29T06:05:12;15.90;91.40
10276;DHT22;5183;51.190;6.820;2022-07-29T06:07:40;16.10;65.00
10276;DHT22;5183;51.190;6.820;2022-07-29T06:10:07;16.10;66.50
10276;DHT22;5183;51.190;6.820;2022-07-29T06:12:36;16.20;88.10
10276;DHT22;5183;51.190;6.820;2022-07-29T06:15:03;16.20;69.30
10276;DHT22;5183;51.190;6.820;2022-07-29T06:17:30;16.30;88.50
10276;DHT22;5183;51.190;6.820;2022-07-29T06:19:57;16.40;6.60
10276;DHT22;5183;51.190;6.820;2022-07-29T06:22:24;16.40;1.00
10276;DHT22;5183;51.190;6.820;2022-07-29T06:24:51;16.40;1.00
10276;DHT22;5183;51.190;6.820;2022-07-29T06:27:18;16.40;1.00
10276;DHT22;5183;51.190;6.820;2022-07-29T06:29:46;16.40;1.00
10276;DHT22;5183;51.190;6.820;2022-07-29T06:32:13;16.40;1.00
10276;DHT22;5183;51.190;6.820;2022-07-29T06:34:40;16.40;1.00
10276;DHT22;5183;51.190;6.820;2022-07-29T06:37:07;16.30;1.00
10276;DHT22;5183;51.190;6.820;2022-07-29T06:39:34;16.40;1.00
10276;DHT22;5183;51.190;6.820;2022-07-29T06:42:02;16.40;1.00
10276;DHT22;5183;51.190;6.820;2022-07-29T06:44:29;16.40;99.90
10276;DHT22;5183;51.190;6.820;2022-07-29T06:46:57;16.50;99.90
10276;DHT22;5183;51.190;6.820;2022-07-29T06:49:24;16.50;91.70
10276;DHT22;5183;51.190;6.820;2022-07-29T06:51:51;16.50;99.90
10276;DHT22;5183;51.190;6.820;2022-07-29T06:54:18;16.50;1.00
10276;DHT22;5183;51.190;6.820;2022-07-29T06:56:45;16.40;1.00
10276;DHT22;5183;51.190;6.820;2022-07-29T06:59:13;16.40;1.00
10276;DHT22;5183;51.190;6.820;2022-07-29T07:01:41;16.50;1.00
10276;DHT22;5183;51.190;6.820;2022-07-29T07:04:11;16.50;1.00
10276;DHT22;5183;51.190;6.820;2022-07-29T07:06:38;16.50;99.90
10276;DHT22;5183;51.190;6.820;2022-07-29T07:09:05;16.50;99.90
10276;DHT22;5183;51.190;6.820;2022-07-29T07:11:32;16.60;1.00
10276;DHT22;5183;51.190;6.820;2022-07-29T07:13:59;16.60;99.90
10276;DHT22;5183;51.190;6.820;2022-07-29T07:16:26;16.70;99.90
10276;DHT22;5183;51.190;6.820;2022-07-29T07:18:53;16.80;99.90
10276;DHT22;5183;51.190;6.820;2022-07-29T07:21:21;16.80;99.90
10276;DHT22;5183;51.190;6.820;2022-07-29T07:23:48;16.90;99.90
10276;DHT22;5183;51.190;6.820;2022-07-29T07:26:14;16.90;1.00
10276;DHT22;5183;51.190;6.820;2022-07-29T07:28:41;16.90;1.00
10276;DHT22;5183;51.190;6.820;2022-07-29T07:31:08;16.80;1.00
10276;DHT22;5183;51.190;6.820;2022-07-29T07:33:35;16.80;1.00
10276;DHT22;5183;51.190;6.820;2022-07-29T07:36:03;16.70;1.00
10276;DHT22;5183;51.190;6.820;2022-07-29T07:38:31;16.70;1.00
10276;DHT22;5183;51.190;6.820;2022-07-29T07:40:58;16.60;1.00
10276;DHT22;5183;51.190;6.820;2022-07-29T07:43:25;16.60;42.00
10276;DHT22;5183;51.190;6.820;2022-07-29T07:45:52;16.60;99.90
10276;DHT22;5183;51.190;6.820;2022-07-29T07:48:19;16.60;99.90
10276;DHT22;5183;51.190;6.820;2022-07-29T07:50:46;16.70;99.90
10276;DHT22;5183;51.190;6.820;2022-07-29T07:53:14;16.70;99.90
10276;DHT22;5183;51.190;6.820;2022-07-29T07:55:43;16.70;99.90
10276;DHT22;5183;51.190;6.820;2022-07-29T07:58:10;16.60;99.90
10276;DHT22;5183;51.190;6.820;2022-07-29T08:00:37;16.60;99.90
10276;DHT22;5183;51.190;6.820;2022-07-29T08:03:04;16.70;99.50
10276;DHT22;5183;51.190;6.820;2022-07-29T08:05:31;16.70;99.90
10276;DHT22;5183;51.190;6.820;2022-07-29T08:07:57;16.80;99.90
10276;DHT22;5183;51.190;6.820;2022-07-29T08:10:24;16.80;99.90
10276;DHT22;5183;51.190;6.820;2022-07-29T08:13:08;16.90;99.90
10276;DHT22;5183;51.190;6.820;2022-07-29T08:15:36;16.90;99.90
10276;DHT22;5183;51.190;6.820;2022-07-29T08:18:05;16.90;99.90
10276;DHT22;5183;51.190;6.820;2022-07-29T08:20:31;17.00;99.90
10276;DHT22;5183;51.190;6.820;2022-07-29T08:23:01;17.00;99.90
10276;DHT22;5183;51.190;6.820;2022-07-29T08:25:28;16.90;99.90
10276;DHT22;5183;51.190;6.820;2022-07-29T08:27:55;16.90;99.90
10276;DHT22;5183;51.190;6.820;2022-07-29T08:30:23;17.00;66.00
10276;DHT22;5183;51.190;6.820;2022-07-29T08:32:50;17.00;22.80
10276;DHT22;5183;51.190;6.820;2022-07-29T08:35:18;17.00;1.00
10276;DHT22;5183;51.190;6.820;2022-07-29T08:37:45;17.10;1.00
10276;DHT22;5183;51.190;6.820;2022-07-29T08:40:12;17.20;1.00
10276;DHT22;5183;51.190;6.820;2022-07-29T08:42:40;17.20;1.00
10276;DHT22;5183;51.190;6.820;2022-07-29T08:45:08;17.20;1.00
10276;DHT22;5183;51.190;6.820;2022-07-29T08:47:38;17.30;1.00
10276;DHT22;5183;51.190;6.820;2022-07-29T08:50:06;17.30;1.00
10276;DHT22;5183;51.190;6.820;2022-07-29T08:52:36;17.20;1.00
10276;DHT22;5183;51.190;6.820;2022-07-29T08:55:04;17.10;1.00
10276;DHT22;5183;51.190;6.820;2022-07-29T08:57:33;17.10;1.00
10276;DHT22;5183;51.190;6.820;2022-07-29T09:00:02;17.10;1.00
10276;DHT22;5183;51.190;6.820;2022-07-29T09:02:35;17.10;1.00
10276;DHT22;5183;51.190;6.820;2022-07-29T09:05:04;17.10;1.00
10276;DHT22;5183;51.190;6.820;2022-07-29T09:07:32;17.10;1.00
10276;DHT22;5183;51.190;6.820;2022-07-29T09:09:59;17.30;1.00
10276;DHT22;5183;51.190;6.820;2022-07-29T09:12:26;17.50;1.00
10276;DHT22;5183;51.190;6.820;2022-07-29T09:14:53;17.70;1.00
10276;DHT22;5183;51.190;6.820;2022-07-29T09:17:42;18.00;1.00
10276;DHT22;5183;51.190;6.820;2022-07-29T09:20:12;18.30;99.90
10276;DHT22;5183;51.190;6.820;2022-07-29T09:22:40;18.50;99.90
10276;DHT22;5183;51.190;6.820;2022-07-29T09:25:07;18.70;99.90
10276;DHT22;5183;51.190;6.820;2022-07-29T09:27:34;18.90;99.90
10276;DHT22;5183;51.190;6.820;2022-07-29T09:30:04;19.20;1.00
10276;DHT22;5183;51.190;6.820;2022-07-29T09:32:31;19.30;1.00
10276;DHT22;5183;51.190;6.820;2022-07-29T09:35:19;19.50;99.90
10276;DHT22;5183;51.190;6.820;2022-07-29T09:37:46;19.60;99.90
10276;DHT22;5183;51.190;6.820;2022-07-29T09:40:15;19.70;55.50
10276;DHT22;5183;51.190;6.820;2022-07-29T09:42:43;19.70;1.00
10276;DHT22;5183;51.190;6.820;2022-07-29T09:45:10;19.60;1.00
10276;DHT22;5183;51.190;6.820;2022-07-29T09:47:44;19.50;1.00
10276;DHT22;5183;51.190;6.820;2022-07-29T09:50:12;19.50;1.00
10276;DHT22;5183;51.190;6.820;2022-07-29T09:52:49;19.50;1.00
10276;DHT22;5183;51.190;6.820;2022-07-29T09:55:17;19.40;1.00
10276;DHT22;5183;51.190;6.820;2022-07-29T09:57:45;19.50;1.00
10276;DHT22;5183;51.190;6.820;2022-07-29T10:00:14;19.60;1.00
10276;DHT22;5183;51.190;6.820;2022-07-29T10:02:42;19.70;1.00
10276;DHT22;5183;51.190;6.820;2022-07-29T10:05:19;19.70;1.00
10276;DHT22;5183;51.190;6.820;2022-07-29T10:07:49;19.90;1.00
10276;DHT22;5183;51.190;6.820;2022-07-29T10:10:21;19.90;1.00
10276;DHT22;5183;51.190;6.820;2022-07-29T10:12:50;20.00;1.00
10276;DHT22;5183;51.190;6.820;2022-07-29T10:15:18;20.20;99.90
10276;DHT22;5183;51.190;6.820;2022-07-29T10:17:47;20.30;99.90
10276;DHT22;5183;51.190;6.820;2022-07-29T10:20:15;20.40;1.00
10276;DHT22;5183;51.190;6.820;2022-07-29T10:22:42;20.40;1.00
10276;DHT22;5183;51.190;6.820;2022-07-29T10:25:11;20.40;1.00
10276;DHT22;5183;51.190;6.820;2022-07-29T10:27:38;20.50;1.00
10276;DHT22;5183;51.190;6.820;2022-07-29T10:30:06;20.60;99.90
10276;DHT22;5183;51.190;6.820;2022-07-29T10:32:43;20.70;99.90
10276;DHT22;5183;51.190;6.820;2022-07-29T10:35:22;20.70;99.90
10276;DHT22;5183;51.190;6.820;2022-07-29T10:38:26;20.60;99.90
10276;DHT22;5183;51.190;6.820;2022-07-29T10:41:03;20.80;1.00
10276;DHT22;5183;51.190;6.820;2022-07-29T10:43:52;20.70;99.90
10276;DHT22;5183;51.190;6.820;2022-07-29T10:46:20;20.90;99.90
10276;DHT22;5183;51.190;6.820;2022-07-29T10:49:10;21.00;1.00
10276;DHT22;5183;51.190;6.820;2022-07-29T10:52:08;21.30;1.00
10276;DHT22;5183;51.190;6.820;2022-07-29T10:54:47;21.40;1.00
10276;DHT22;5183;51.190;6.820;2022-07-29T10:57:22;21.50;1.00
10276;DHT22;5183;51.190;6.820;2022-07-29T11:02:44;21.80;1.00
10276;DHT22;5183;51.190;6.820;2022-07-29T11:05:14;22.00;1.00
10276;DHT22;5183;51.190;6.820;2022-07-29T11:08:20;22.10;99.90
10276;DHT22;5183;51.190;6.820;2022-07-29T11:10:49;22.40;99.90
10276;DHT22;5183;51.190;6.820;2022-07-29T11:13:48;22.60;99.90
10276;DHT22;5183;51.190;6.820;2022-07-29T11:16:17;22.70;99.90
10276;DHT22;5183;51.190;6.820;2022-07-29T11:19:20;23.00;1.00
10276;DHT22;5183;51.190;6.820;2022-07-29T11:21:48;23.40;1.00
10276;DHT22;5183;51.190;6.820;2022-07-29T11:24:18;23.70;1.00
10276;DHT22;5183;51.190;6.820;2022-07-29T11:27:12;24.10;1.00
10276;DHT22;5183;51.190;6.820;2022-07-29T11:29:49;24.50;99.90
10276;DHT22;5183;51.190;6.820;2022-07-29T11:32:17;24.50;95.00
10276;DHT22;5183;51.190;6.820;2022-07-29T11:34:46;24.50;99.90
10276;DHT22;5183;51.190;6.820;2022-07-29T11:37:18;24.70;99.90
10276;DHT22;5183;51.190;6.820;2022-07-29T11:39:47;24.60;1.00
10276;DHT22;5183;51.190;6.820;2022-07-29T11:42:37;24.70;1.00
10276;DHT22;5183;51.190;6.820;2022-07-29T11:45:07;24.70;99.90
10276;DHT22;5183;51.190;6.820;2022-07-29T11:47:36;24.70;99.90
10276;DHT22;5183;51.190;6.820;2022-07-29T11:50:06;24.70;99.90
10276;DHT22;5183;51.190;6.820;2022-07-29T11:52:33;24.60;99.90
10276;DHT22;5183;51.190;6.820;2022-07-29T11:55:04;24.80;99.90
10276;DHT22;5183;51.190;6.820;2022-07-29T11:57:31;24.90;19.60
10276;DHT22;5183;51.190;6.820;2022-07-29T11:59:59;24.90;91.60
10276;DHT22;5183;51.190;6.820;2022-07-29T12:02:39;25.00;1.00
10276;DHT22;5183;51.190;6.820;2022-07-29T12:05:08;25.20;1.00
10276;DHT22;5183;51.190;6.820;2022-07-29T12:07:37;25.30;1.00
10276;DHT22;5183;51.190;6.820;2022-07-29T12:10:06;25.40;1.00
10276;DHT22;5183;51.190;6.820;2022-07-29T12:12:34;25.70;1.00
10276;DHT22;5183;51.190;6.820;2022-07-29T12:15:15;25.90;1.00
10276;DHT22;5183;51.190;6.820;2022-07-29T12:17:45;25.90;1.00
10276;DHT22;5183;51.190;6.820;2022-07-29T12:20:12;25.90;1.00
10276;DHT22;5183;51.190;6.820;2022-07-29T12:22:42;26.10;98.00
10276;DHT22;5183;51.190;6.820;2022-07-29T12:25:11;26.00;99.90
10276;DHT22;5183;51.190;6.820;2022-07-29T12:27:41;25.80;1.00
10276;DHT22;5183;51.190;6.820;2022-07-29T12:30:10;26.20;99.90
10276;DHT22;5183;51.190;6.820;2022-07-29T12:32:38;26.50;99.90
10276;DHT22;5183;51.190;6.820;2022-07-29T12:35:08;26.60;99.90
10276;DHT22;5183;51.190;6.820;2022-07-29T12:37:37;26.70;99.90
10276;DHT22;5183;51.190;6.820;2022-07-29T12:40:06;26.30;99.90
10276;DHT22;5183;51.190;6.820;2022-07-29T12:42:33;26.00;99.90
10276;DHT22;5183;51.190;6.820;2022-07-29T12:45:01;26.00;99.90
10276;DHT22;5183;51.190;6.820;2022-07-29T12:47:28;26.10;99.90
10276;DHT22;5183;51.190;6.820;2022-07-29T12:50:09;25.90;99.90
10276;DHT22;5183;51.190;6.820;2022-07-29T12:52:37;25.80;99.90
10276;DHT22;5183;51.190;6.820;2022-07-29T12:55:04;25.90;99.90
10276;DHT22;5183;51.190;6.820;2022-07-29T12:57:32;25.90;99.90
10276;DHT22;5183;51.190;6.820;2022-07-29T13:00:12;25.90;99.90
10276;DHT22;5183;51.190;6.820;2022-07-29T13:02:40;25.50;99.90
10276;DHT22;5183;51.190;6.820;2022-07-29T13:05:10;25.30;1.00
10276;DHT22;5183;51.190;6.820;2022-07-29T13:07:38;25.00;1.00
10276;DHT22;5183;51.190;6.820;2022-07-29T13:10:14;24.90;1.00
10276;DHT22;5183;51.190;6.820;2022-07-29T13:13:03;25.00;1.00
10276;DHT22;5183;51.190;6.820;2022-07-29T13:15:31;25.40;1.00
10276;DHT22;5183;51.190;6.820;2022-07-29T13:17:59;25.70;1.00
10276;DHT22;5183;51.190;6.820;2022-07-29T13:20:28;25.90;99.90
10276;DHT22;5183;51.190;6.820;2022-07-29T13:22:56;26.10;99.90
10276;DHT22;5183;51.190;6.820;2022-07-29T13:25:24;26.20;55.20
10276;DHT22;5183;51.190;6.820;2022-07-29T13:27:52;26.20;29.20
10276;DHT22;5183;51.190;6.820;2022-07-29T13:30:20;26.50;16.70
10276;DHT22;5183;51.190;6.820;2022-07-29T13:32:47;26.50;1.00
10276;DHT22;5183;51.190;6.820;2022-07-29T13:35:14;26.80;1.00
10276;DHT22;5183;51.190;6.820;2022-07-29T13:37:42;26.80;1.00
10276;DHT22;5183;51.190;6.820;2022-07-29T13:40:10;26.70;1.00
10276;DHT22;5183;51.190;6.820;2022-07-29T13:42:37;26.70;11.70
10276;DHT22;5183;51.190;6.820;2022-07-29T13:45:06;26.70;1.00
10276;DHT22;5183;51.190;6.820;2022-07-29T13:47:33;26.70;1.00
10276;DHT22;5183;51.190;6.820;2022-07-29T13:50:00;26.70;1.00
10276;DHT22;5183;51.190;6.820;2022-07-29T13:52:27;26.80;1.00
10276;DHT22;5183;51.190;6.820;2022-07-29T13:54:56;26.80;1.00
10276;DHT22;5183;51.190;6.820;2022-07-29T13:57:23;27.00;1.00
10276;DHT22;5183;51.190;6.820;2022-07-29T13:59:49;27.10;1.00
10276;DHT22;5183;51.190;6.820;2022-07-29T14:02:17;27.20;1.00
10276;DHT22;5183;51.190;6.820;2022-07-29T14:04:44;27.10;1.00
10276;DHT22;5183;51.190;6.820;2022-07-29T14:07:11;27.30;1.00
10276;DHT22;5183;51.190;6.820;2022-07-29T14:09:38;27.60;1.00
10276;DHT22;5183;51.190;6.820;2022-07-29T14:12:07;27.80;99.90
10276;DHT22;5183;51.190;6.820;2022-07-29T14:14:34;27.90;99.90
10276;DHT22;5183;51.190;6.820;2022-07-29T14:17:02;27.90;99.90
10276;DHT22;5183;51.190;6.820;2022-07-29T14:19:31;28.00;99.90
10276;DHT22;5183;51.190;6.820;2022-07-29T14:22:01;28.10;99.90
10276;DHT22;5183;51.190;6.820;2022-07-29T14:24:28;28.10;99.90
10276;DHT22;5183;51.190;6.820;2022-07-29T14:26:56;27.90;99.90
10276;DHT22;5183;51.190;6.820;2022-07-29T14:29:25;27.90;99.90
10276;DHT22;5183;51.190;6.820;2022-07-29T14:31:52;27.90;99.90
10276;DHT22;5183;51.190;6.820;2022-07-29T14:34:18;27.90;99.90
10276;DHT22;5183;51.190;6.820;2022-07-29T14:36:45;27.90;99.90
10276;DHT22;5183;51.190;6.820;2022-07-29T14:39:12;28.00;87.00
10276;DHT22;5183;51.190;6.820;2022-07-29T14:41:41;27.90;1.00
10276;DHT22;5183;51.190;6.820;2022-07-29T14:44:08;27.90;18.00
10276;DHT22;5183;51.190;6.820;2022-07-29T14:46:36;28.00;99.90
10276;DHT22;5183;51.190;6.820;2022-07-29T14:49:03;28.10;1.00
10276;DHT22;5183;51.190;6.820;2022-07-29T14:51:31;28.10;37.00
10276;DHT22;5183;51.190;6.820;2022-07-29T14:53:58;28.10;1.00
10276;DHT22;5183;51.190;6.820;2022-07-29T14:56:25;28.30;1.00
10276;DHT22;5183;51.190;6.820;2022-07-29T14:58:52;28.70;1.00
10276;DHT22;5183;51.190;6.820;2022-07-29T15:01:19;28.60;1.00
10276;DHT22;5183;51.190;6.820;2022-07-29T15:03:47;28.80;1.00
10276;DHT22;5183;51.190;6.820;2022-07-29T15:06:14;28.60;1.00
10276;DHT22;5183;51.190;6.820;2022-07-29T15:08:41;28.50;1.00
10276;DHT22;5183;51.190;6.820;2022-07-29T15:11:08;28.60;1.00
10276;DHT22;5183;51.190;6.820;2022-07-29T15:13:35;28.50;1.00
10276;DHT22;5183;51.190;6.820;2022-07-29T15:16:02;28.40;1.00
10276;DHT22;5183;51.190;6.820;2022-07-29T15:18:29;28.30;1.00
10276;DHT22;5183;51.190;6.820;2022-07-29T15:20:57;28.00;99.90
10276;DHT22;5183;51.190;6.820;2022-07-29T15:23:25;27.80;1.00
10276;DHT22;5183;51.190;6.820;2022-07-29T15:25:52;27.60;1.00
10276;DHT22;5183;51.190;6.820;2022-07-29T15:28:19;27.40;1.00
10276;DHT22;5183;51.190;6.820;2022-07-29T15:30:46;27.20;1.00
10276;DHT22;5183;51.190;6.820;2022-07-29T15:33:13;27.30;1.00
10276;DHT22;5183;51.190;6.820;2022-07-29T15:35:40;27.50;1.00
10276;DHT22;5183;51.190;6.820;2022-07-29T15:38:08;27.50;1.00
10276;DHT22;5183;51.190;6.820;2022-07-29T15:40:37;27.50;1.00
10276;DHT22;5183;51.190;6.820;2022-07-29T15:43:04;27.40;1.00
10276;DHT22;5183;51.190;6.820;2022-07-29T15:45:35;27.30;1.00
10276;DHT22;5183;51.190;6.820;2022-07-29T15:48:04;27.30;1.00
10276;DHT22;5183;51.190;6.820;2022-07-29T15:50:32;27.60;1.00
10276;DHT22;5183;51.190;6.820;2022-07-29T15:52:59;28.10;99.90
10276;DHT22;5183;51.190;6.820;2022-07-29T15:55:27;28.30;99.90
10276;DHT22;5183;51.190;6.820;2022-07-29T15:57:54;28.60;99.90
10276;DHT22;5183;51.190;6.820;2022-07-29T16:00:21;28.80;99.90
10276;DHT22;5183;51.190;6.820;2022-07-29T16:02:49;29.00;91.90
10276;DHT22;5183;51.190;6.820;2022-07-29T16:05:16;29.10;59.60
10276;DHT22;5183;51.190;6.820;2022-07-29T16:07:43;29.10;75.10
10276;DHT22;5183;51.190;6.820;2022-07-29T16:10:10;29.20;99.90